KCCB/CCB METAR and TAF weather

Enter ICAO airport designator
Station Type Date Time Source
KCCB METAR 2018/06/25 16:55 UTC NOAA

KCCB 251655Z AUTO 00000KT 8SM CLR 21/13 A2999 RMK AO2


Station Type Date Time Source
KCCB Decoded METAR 2018/06/25 16:55 UTC NOAA

Station name not available
Jun 25, 2018 - 12:55 PM EDT / 2018.06.25 1655 UTC
Wind: Calm:0
Visibility: 8 mile(s):0
Sky conditions: clear
Temperature: 69 F (21 C)
Dew Point: 55 F (13 C)
Relative Humidity: 60%
Pressure (altimeter): 29.99 in. Hg (1015 hPa)
ob: KCCB 251655Z AUTO 00000KT 8SM CLR 21/13 A2999 RMK AO2
cycle: 17

Station Type Date Time Source
KCCB TAF UTC NOAA

Error!


Example: see airport list